createdAt,value
2023-03-31T00:00:16.133Z,99923.44
2023-03-31T00:02:42.795Z,99902.44
2023-03-31T00:05:12.029Z,99904.13
2023-03-31T00:07:40.721Z,99897.84
2023-03-31T00:10:17.217Z,99888.66
2023-03-31T00:12:48.150Z,99885.69
2023-03-31T00:15:14.596Z,99879.09
2023-03-31T00:17:40.984Z,99870.97
2023-03-31T00:20:12.399Z,99869.56
2023-03-31T00:22:42.230Z,99855.97
2023-03-31T00:25:13.024Z,99857.00
2023-03-31T00:27:44.173Z,99839.56
2023-03-31T00:30:12.587Z,99848.63
2023-03-31T00:32:41.841Z,99846.63
2023-03-31T00:35:09.095Z,99841.75
2023-03-31T00:37:35.651Z,99834.13
2023-03-31T00:40:02.173Z,99843.03
2023-03-31T00:42:28.707Z,99839.19
2023-03-31T00:45:13.584Z,99840.22
2023-03-31T00:47:51.498Z,99835.44
2023-03-31T00:50:26.062Z,99834.22
2023-03-31T00:53:08.469Z,99817.88
2023-03-31T00:55:40.286Z,99815.69
2023-03-31T00:58:14.456Z,99805.38
2023-03-31T01:00:44.498Z,99813.75
2023-03-31T01:03:16.478Z,99799.41
2023-03-31T01:05:47.213Z,99789.47
2023-03-31T01:08:16.068Z,99788.63
2023-03-31T01:10:51.681Z,99794.78
2023-03-31T01:13:19.910Z,99782.31
2023-03-31T01:15:53.484Z,99782.06
2023-03-31T01:18:21.786Z,99772.31
2023-03-31T01:21:06.763Z,99778.16
2023-03-31T01:24:07.412Z,99764.63
2023-03-31T01:26:53.848Z,99753.28
2023-03-31T01:29:42.741Z,99762.28
2023-03-31T01:32:39.883Z,99769.75
2023-03-31T01:35:31.080Z,99763.47
2023-03-31T01:38:46.648Z,99764.09
2023-03-31T01:41:42.585Z,99761.69
2023-03-31T01:44:26.948Z,99749.56
2023-03-31T01:47:14.729Z,99737.72
2023-03-31T01:49:57.397Z,99730.09
2023-03-31T01:52:56.108Z,99727.50
2023-03-31T01:55:35.723Z,99715.13
2023-03-31T01:58:28.593Z,99711.66
2023-03-31T02:01:02.002Z,99707.00
2023-03-31T02:03:33.095Z,99699.06
2023-03-31T02:06:08.681Z,99704.53
2023-03-31T02:08:42.931Z,99697.47
2023-03-31T02:11:10.817Z,99696.13
2023-03-31T02:13:41.484Z,99692.47
2023-03-31T02:16:14.246Z,99694.47
2023-03-31T02:18:42.005Z,99685.16
2023-03-31T02:21:09.180Z,99688.16
2023-03-31T02:23:41.462Z,99682.69
2023-03-31T02:26:08.041Z,99679.47
2023-03-31T02:28:35.507Z,99674.78
2023-03-31T02:31:10.960Z,99662.28
2023-03-31T02:33:37.628Z,99647.00
2023-03-31T02:36:05.789Z,99639.97
2023-03-31T02:38:38.278Z,99639.53
2023-03-31T02:41:04.758Z,99631.63
2023-03-31T02:43:31.198Z,99633.47
2023-03-31T02:46:02.340Z,99626.97
2023-03-31T02:48:35.573Z,99619.88
2023-03-31T02:51:10.414Z,99613.19
2023-03-31T02:53:56.508Z,99611.38
2023-03-31T02:56:45.751Z,99612.19
2023-03-31T02:59:14.936Z,99595.75
2023-03-31T03:01:54.242Z,99581.75
2023-03-31T03:04:45.587Z,99576.69
2023-03-31T03:07:30.723Z,99572.84
2023-03-31T03:10:20.733Z,99559.44
2023-03-31T03:13:23.043Z,99555.16
2023-03-31T03:16:27.402Z,99546.06
2023-03-31T03:19:03.006Z,99543.63
2023-03-31T03:21:30.818Z,99537.56
2023-03-31T03:24:00.270Z,99525.78
2023-03-31T03:26:28.596Z,99519.69
2023-03-31T03:28:56.588Z,99510.16
2023-03-31T03:31:24.136Z,99512.59
2023-03-31T03:33:50.996Z,99499.22
2023-03-31T03:36:17.637Z,99490.50
2023-03-31T03:38:44.284Z,99481.59
2023-03-31T03:41:10.853Z,99470.44
2023-03-31T03:43:37.218Z,99461.91
2023-03-31T03:46:04.160Z,99449.31
2023-03-31T03:48:30.842Z,99424.22
2023-03-31T03:51:04.815Z,99409.81
2023-03-31T03:53:33.594Z,99415.72
2023-03-31T03:55:59.933Z,99410.44
2023-03-31T03:58:28.690Z,99413.47
2023-03-31T04:00:57.599Z,99408.59
2023-03-31T04:03:26.403Z,99420.75
2023-03-31T04:05:52.858Z,99437.19
2023-03-31T04:08:19.687Z,99434.72
2023-03-31T04:10:49.151Z,99436.97
2023-03-31T04:13:16.875Z,99431.31
2023-03-31T04:15:47.298Z,99421.16
2023-03-31T04:18:23.401Z,99416.13
2023-03-31T04:21:05.568Z,99411.66
2023-03-31T04:23:38.437Z,99411.25
2023-03-31T04:26:09.092Z,99402.13
2023-03-31T04:28:42.672Z,99403.94
2023-03-31T04:31:10.620Z,99395.84
2023-03-31T04:33:40.164Z,99396.47
2023-03-31T04:36:17.572Z,99376.19
2023-03-31T04:38:46.918Z,99373.16
2023-03-31T04:41:14.571Z,99364.84
2023-03-31T04:43:41.332Z,99378.84
2023-03-31T04:46:07.893Z,99382.47
2023-03-31T04:48:35.306Z,99376.38
2023-03-31T04:51:04.031Z,99361.81
2023-03-31T04:53:30.645Z,99361.19
2023-03-31T04:55:57.440Z,99363.03
2023-03-31T04:58:26.200Z,99372.13
2023-03-31T05:00:55.568Z,99373.56
2023-03-31T05:03:22.425Z,99378.22
2023-03-31T05:05:48.909Z,99371.13
2023-03-31T05:08:15.423Z,99369.91
2023-03-31T05:10:41.813Z,99362.63
2023-03-31T05:13:10.481Z,99367.91
2023-03-31T05:15:40.852Z,99368.31
2023-03-31T05:18:07.946Z,99381.88
2023-03-31T05:20:39.330Z,99377.00
2023-03-31T05:23:06.900Z,99374.78
2023-03-31T05:25:33.671Z,99365.84
2023-03-31T05:28:01.047Z,99362.00
2023-03-31T05:30:28.754Z,99353.09
2023-03-31T05:32:56.218Z,99347.63
2023-03-31T05:35:22.967Z,99329.38
2023-03-31T05:37:49.584Z,99335.06
2023-03-31T05:40:16.102Z,99322.13
2023-03-31T05:42:42.776Z,99325.34
2023-03-31T05:45:09.586Z,99311.59
2023-03-31T05:47:36.932Z,99298.81
2023-03-31T05:50:08.943Z,99302.25
2023-03-31T05:52:36.204Z,99301.63
2023-03-31T05:55:04.290Z,99298.41
2023-03-31T05:57:31.285Z,99285.66
2023-03-31T05:59:57.911Z,99271.69
2023-03-31T06:02:24.532Z,99268.66
2023-03-31T06:04:52.017Z,99265.59
2023-03-31T06:07:19.158Z,99255.28
2023-03-31T06:09:48.412Z,99244.75
2023-03-31T06:12:16.021Z,99239.69
2023-03-31T06:14:42.571Z,99253.44
2023-03-31T06:17:09.021Z,99245.78
2023-03-31T06:19:36.010Z,99238.84
2023-03-31T06:22:02.374Z,99241.28
2023-03-31T06:24:28.819Z,99231.75
2023-03-31T06:26:57.745Z,99222.06
2023-03-31T06:29:24.612Z,99214.19
2023-03-31T06:31:51.039Z,99195.53
2023-03-31T06:34:21.380Z,99183.13
2023-03-31T06:36:47.999Z,99170.63
2023-03-31T06:39:16.989Z,99166.00
2023-03-31T06:41:43.490Z,99171.84
2023-03-31T06:44:10.290Z,99177.31
2023-03-31T06:46:37.095Z,99190.69
2023-03-31T06:49:03.616Z,99186.03
2023-03-31T06:51:31.842Z,99187.22
2023-03-31T06:53:59.132Z,99183.16
2023-03-31T06:56:26.419Z,99177.84
2023-03-31T06:58:52.977Z,99177.06
2023-03-31T07:01:19.439Z,99186.78
2023-03-31T07:03:48.313Z,99190.84
2023-03-31T07:06:17.156Z,99197.69
2023-03-31T07:08:43.571Z,99199.50
2023-03-31T07:11:10.569Z,99198.31
2023-03-31T07:13:37.414Z,99182.53
2023-03-31T07:16:05.211Z,99174.78
2023-03-31T07:18:35.500Z,99191.44
2023-03-31T07:21:05.101Z,99181.03
2023-03-31T07:23:33.888Z,99183.22
2023-03-31T07:26:02.503Z,99178.66
2023-03-31T07:28:30.240Z,99185.75
2023-03-31T07:30:56.861Z,99184.59
2023-03-31T07:33:25.952Z,99184.22
2023-03-31T07:36:10.692Z,99188.63
2023-03-31T07:38:39.124Z,99184.66
2023-03-31T07:41:10.227Z,99187.22
2023-03-31T07:43:42.017Z,99183.50
2023-03-31T07:46:18.361Z,99174.75
2023-03-31T07:48:46.652Z,99172.34
2023-03-31T07:51:14.954Z,99166.19
2023-03-31T07:53:41.430Z,99171.13
2023-03-31T07:56:08.186Z,99188.53
2023-03-31T07:58:34.782Z,99191.34
2023-03-31T08:01:01.938Z,99193.69
2023-03-31T08:03:28.952Z,99199.38
2023-03-31T08:05:55.816Z,99197.50
2023-03-31T08:08:22.323Z,99197.53
2023-03-31T08:10:49.440Z,99199.38
2023-03-31T08:13:15.885Z,99190.44
2023-03-31T08:15:42.426Z,99186.53
2023-03-31T08:18:09.046Z,99190.41
2023-03-31T08:20:35.780Z,99177.00
2023-03-31T08:23:02.238Z,99184.66
2023-03-31T08:25:28.670Z,99174.41
2023-03-31T08:27:57.745Z,99170.72
2023-03-31T08:30:24.127Z,99174.47
2023-03-31T08:32:50.829Z,99159.78
2023-03-31T08:35:17.430Z,99156.25
2023-03-31T08:37:43.821Z,99153.06
2023-03-31T08:40:19.191Z,99134.41
2023-03-31T08:43:12.272Z,99149.34
2023-03-31T08:45:47.768Z,99146.88
2023-03-31T08:48:30.788Z,99145.63
2023-03-31T08:51:07.203Z,99133.91
2023-03-31T08:53:45.259Z,99139.91
2023-03-31T08:56:20.859Z,99141.63
2023-03-31T08:58:49.775Z,99128.34
2023-03-31T09:01:35.833Z,99133.22
2023-03-31T09:04:33.567Z,99144.75
2023-03-31T09:07:34.856Z,99123.78
2023-03-31T09:10:13.264Z,99136.56
2023-03-31T09:12:47.587Z,99135.44
2023-03-31T09:15:26.393Z,99144.59
2023-03-31T09:17:56.005Z,99150.78
2023-03-31T09:20:30.431Z,99153.06
2023-03-31T09:23:13.858Z,99134.06
2023-03-31T09:25:42.766Z,99112.84
2023-03-31T09:28:37.719Z,99118.03
2023-03-31T09:31:15.958Z,99110.28
2023-03-31T09:33:47.135Z,99113.03
2023-03-31T09:36:22.408Z,99103.69
2023-03-31T09:38:49.705Z,99085.94
2023-03-31T09:41:17.111Z,99087.09
2023-03-31T09:43:46.388Z,99076.47
2023-03-31T09:46:35.246Z,99071.69
2023-03-31T09:49:08.947Z,99060.22
2023-03-31T09:51:39.923Z,99062.97
2023-03-31T09:54:29.463Z,99066.41
2023-03-31T09:56:56.134Z,99078.88
2023-03-31T09:59:30.537Z,99063.81
2023-03-31T10:02:00.176Z,99058.41
2023-03-31T10:04:30.793Z,99070.75
2023-03-31T10:06:58.814Z,99058.28
2023-03-31T10:09:30.233Z,99065.31
2023-03-31T10:12:04.022Z,99062.66
2023-03-31T10:14:50.531Z,99060.69
2023-03-31T10:17:19.797Z,99064.03
2023-03-31T10:19:59.539Z,99050.00
2023-03-31T10:22:31.537Z,99055.88
2023-03-31T10:25:16.746Z,99050.72
2023-03-31T10:27:47.414Z,99045.41
2023-03-31T10:30:21.114Z,99025.97
2023-03-31T10:32:49.945Z,99053.19
2023-03-31T10:35:34.516Z,99054.75
2023-03-31T10:38:08.474Z,99055.16
2023-03-31T10:40:36.169Z,99040.53
2023-03-31T10:43:16.018Z,99052.13
2023-03-31T10:45:48.072Z,99167.44
2023-03-31T10:48:34.974Z,99173.84
2023-03-31T10:53:49.296Z,99132.41
2023-03-31T10:56:35.374Z,99121.69
2023-03-31T10:59:35.179Z,99111.38
2023-03-31T11:02:39.265Z,99101.06
2023-03-31T11:05:15.255Z,99101.00
2023-03-31T11:08:17.340Z,99092.66
2023-03-31T11:11:00.477Z,99080.19
2023-03-31T11:13:52.758Z,99082.44
2023-03-31T11:16:31.230Z,99076.41
2023-03-31T11:19:15.580Z,99067.84
2023-03-31T11:22:09.945Z,99052.00
2023-03-31T11:24:46.058Z,99069.56
2023-03-31T11:27:24.103Z,99064.88
2023-03-31T11:29:50.708Z,99055.28
2023-03-31T11:32:47.209Z,99042.00
2023-03-31T11:35:32.930Z,99050.59
2023-03-31T11:38:33.452Z,99039.75
2023-03-31T11:41:06.832Z,99049.53
2023-03-31T11:43:38.941Z,99057.50
2023-03-31T11:46:13.118Z,99067.16
2023-03-31T11:48:46.007Z,99066.69
2023-03-31T11:51:51.961Z,99056.56
2023-03-31T11:54:37.582Z,99055.22
2023-03-31T11:57:16.711Z,99053.94
2023-03-31T11:59:45.966Z,99046.56
2023-03-31T12:02:20.006Z,99031.19
2023-03-31T12:04:52.790Z,99034.91
2023-03-31T12:07:32.222Z,99044.50
2023-03-31T12:10:11.767Z,99044.25
2023-03-31T12:12:50.900Z,99040.00
2023-03-31T12:15:27.539Z,99033.09
2023-03-31T12:18:00.888Z,99050.94
2023-03-31T12:20:33.080Z,99052.75
2023-03-31T12:23:01.705Z,99043.34
2023-03-31T12:25:48.037Z,99042.91
2023-03-31T12:28:16.212Z,99026.31
2023-03-31T12:30:44.256Z,99016.78
2023-03-31T12:33:27.796Z,99012.59
2023-03-31T12:36:12.284Z,99010.50
2023-03-31T12:39:37.753Z,99007.31
2023-03-31T12:42:25.057Z,99008.41
2023-03-31T12:45:18.595Z,99007.97
2023-03-31T12:48:06.782Z,99001.56
2023-03-31T12:50:41.760Z,99012.22
2023-03-31T12:53:42.336Z,99018.25
2023-03-31T12:56:09.369Z,99013.25
2023-03-31T12:58:43.792Z,99010.69
2023-03-31T13:01:11.377Z,99012.50
2023-03-31T13:03:43.012Z,99012.66
2023-03-31T13:06:29.416Z,99011.81
2023-03-31T13:09:08.659Z,98998.19
2023-03-31T13:11:38.157Z,98989.72
2023-03-31T13:14:16.978Z,99009.69
2023-03-31T13:16:44.086Z,99003.47
2023-03-31T13:19:23.676Z,99010.75
2023-03-31T13:21:56.268Z,99006.81
2023-03-31T13:24:23.804Z,98988.28
2023-03-31T13:26:52.620Z,98991.31
2023-03-31T13:29:22.108Z,98990.13
2023-03-31T13:32:01.027Z,98992.31
2023-03-31T13:34:41.693Z,98984.69
2023-03-31T13:37:28.301Z,98977.81
2023-03-31T13:40:16.111Z,98971.88
2023-03-31T13:43:07.037Z,98970.19
2023-03-31T13:45:48.384Z,98979.56
2023-03-31T13:48:28.208Z,98975.84
2023-03-31T13:51:30.057Z,98978.34
2023-03-31T13:54:24.997Z,98981.41
2023-03-31T13:57:24.241Z,98978.91
2023-03-31T14:00:12.628Z,98964.88
2023-03-31T14:02:57.293Z,98965.75
2023-03-31T14:05:48.523Z,98960.13
2023-03-31T14:08:27.264Z,98949.88
2023-03-31T14:10:53.838Z,98942.38
2023-03-31T14:13:24.970Z,98938.75
2023-03-31T14:15:58.656Z,98966.41
2023-03-31T14:18:28.225Z,98961.34
2023-03-31T14:21:22.599Z,98956.19
2023-03-31T14:24:22.648Z,98934.13
2023-03-31T14:27:18.564Z,98947.53
2023-03-31T14:30:09.517Z,98963.59
2023-03-31T14:32:49.208Z,98957.66
2023-03-31T14:35:44.720Z,98962.03
2023-03-31T14:38:18.009Z,98961.13
2023-03-31T14:40:57.495Z,98949.31
2023-03-31T14:43:29.880Z,98940.44
2023-03-31T14:46:03.211Z,98933.69
2023-03-31T14:48:33.176Z,98921.16
2023-03-31T14:51:02.778Z,98920.72
2023-03-31T14:53:31.687Z,98928.53
2023-03-31T14:56:08.371Z,98925.41
2023-03-31T14:58:38.713Z,98917.28
2023-03-31T15:01:07.614Z,98912.56
2023-03-31T15:03:38.838Z,98918.75
2023-03-31T15:06:05.791Z,98925.16
2023-03-31T15:08:33.113Z,98932.84
2023-03-31T15:11:12.811Z,98937.31
2023-03-31T15:14:00.621Z,98939.50
2023-03-31T15:16:45.020Z,98944.44
2023-03-31T15:19:16.456Z,98942.91
2023-03-31T15:21:44.242Z,98937.06
2023-03-31T15:24:13.349Z,98936.44
2023-03-31T15:27:01.117Z,98938.50
2023-03-31T15:29:47.696Z,98942.44
2023-03-31T15:32:27.566Z,98938.06
2023-03-31T15:34:57.261Z,98936.81
2023-03-31T15:37:32.614Z,98940.03
2023-03-31T15:40:02.037Z,98944.06
2023-03-31T15:42:29.030Z,98944.28
2023-03-31T15:45:16.048Z,98944.16
2023-03-31T15:47:52.748Z,98949.63
2023-03-31T15:50:27.023Z,98945.97
2023-03-31T15:52:58.378Z,98942.03
2023-03-31T15:55:29.050Z,98946.19
2023-03-31T15:57:56.988Z,98953.72
2023-03-31T16:00:47.950Z,98956.53
2023-03-31T16:03:18.884Z,98961.81
2023-03-31T16:05:57.577Z,98970.97
2023-03-31T16:08:42.987Z,98962.97
2023-03-31T16:11:17.929Z,98965.50
2023-03-31T16:13:51.747Z,98960.41
2023-03-31T16:16:22.179Z,98953.22
2023-03-31T16:19:04.142Z,98964.28
2023-03-31T16:21:38.081Z,98957.94
2023-03-31T16:24:05.316Z,98955.00
2023-03-31T16:26:32.418Z,98958.63
2023-03-31T16:29:00.547Z,98949.53
2023-03-31T16:31:30.437Z,98949.53
2023-03-31T16:33:57.700Z,98941.56
2023-03-31T16:36:24.237Z,98949.59
2023-03-31T16:38:54.793Z,98940.22
2023-03-31T16:41:23.382Z,98946.38
2023-03-31T16:43:52.506Z,98943.97
2023-03-31T16:46:19.384Z,98962.06
2023-03-31T16:48:48.508Z,98965.00
2023-03-31T16:51:15.848Z,98963.38
2023-03-31T16:53:42.324Z,98972.19
2023-03-31T16:56:09.871Z,98965.69
2023-03-31T16:58:37.815Z,98965.69
2023-03-31T17:01:08.582Z,98959.91
2023-03-31T17:03:37.206Z,98964.38
2023-03-31T17:06:07.836Z,98962.56
2023-03-31T17:08:38.028Z,98974.50
2023-03-31T17:11:07.893Z,98977.84
2023-03-31T17:13:34.505Z,98977.50
2023-03-31T17:16:16.514Z,98977.41
2023-03-31T17:18:50.089Z,98979.50
2023-03-31T17:21:20.249Z,98976.53
2023-03-31T17:23:47.484Z,98988.50
2023-03-31T17:26:19.180Z,98981.75
2023-03-31T17:28:45.797Z,98989.66
2023-03-31T17:31:17.589Z,98988.16
2023-03-31T17:33:44.707Z,98986.84
2023-03-31T17:36:17.940Z,98996.09
2023-03-31T17:38:46.575Z,99003.13
2023-03-31T17:41:17.705Z,99006.50
2023-03-31T17:43:45.343Z,99015.53
2023-03-31T17:46:12.868Z,99016.00
2023-03-31T17:48:40.354Z,99011.00
2023-03-31T17:51:09.560Z,99012.97
2023-03-31T17:53:39.713Z,99016.59
2023-03-31T17:56:08.859Z,99018.22
2023-03-31T17:58:35.236Z,99023.75
2023-03-31T18:01:05.309Z,99019.81
2023-03-31T18:03:37.549Z,99026.31
2023-03-31T18:06:08.081Z,99026.06
2023-03-31T18:08:35.158Z,99025.53
2023-03-31T18:11:03.265Z,99036.97
2023-03-31T18:13:32.298Z,99038.16
2023-03-31T18:15:58.993Z,99046.66
2023-03-31T18:18:28.106Z,99044.91
2023-03-31T18:21:02.405Z,99050.75
2023-03-31T18:23:28.825Z,99060.69
2023-03-31T18:25:55.580Z,99055.97
2023-03-31T18:28:22.164Z,99053.19
2023-03-31T18:30:48.716Z,99060.44
2023-03-31T18:33:15.322Z,99051.41
2023-03-31T18:35:42.826Z,99056.41
2023-03-31T18:38:09.784Z,99062.91
2023-03-31T18:40:36.573Z,99041.47
2023-03-31T18:43:03.282Z,99061.72
2023-03-31T18:45:30.734Z,99061.94
2023-03-31T18:48:00.259Z,99058.91
2023-03-31T18:50:30.603Z,99060.53
2023-03-31T18:52:57.016Z,99071.22
2023-03-31T18:55:23.461Z,99069.03
2023-03-31T18:57:50.370Z,99059.69
2023-03-31T19:00:17.689Z,99057.25
2023-03-31T19:02:44.537Z,99043.13
2023-03-31T19:05:11.534Z,99056.06
2023-03-31T19:07:37.992Z,99064.16
2023-03-31T19:10:04.685Z,99056.25
2023-03-31T19:12:31.124Z,99061.13
2023-03-31T19:14:58.173Z,99067.56
2023-03-31T19:17:24.682Z,99069.03
2023-03-31T19:19:51.379Z,99060.13
2023-03-31T19:22:17.762Z,99073.84
2023-03-31T19:24:45.151Z,99062.94
2023-03-31T19:27:14.384Z,99061.97
2023-03-31T19:29:41.027Z,99062.75
2023-03-31T19:32:07.588Z,99065.97
2023-03-31T19:34:34.194Z,99067.19
2023-03-31T19:37:02.030Z,99060.91
2023-03-31T19:39:28.651Z,99064.34
2023-03-31T19:41:55.227Z,99068.91
2023-03-31T19:44:21.702Z,99074.25
2023-03-31T19:46:48.264Z,99075.69
2023-03-31T19:49:15.366Z,99074.06
2023-03-31T19:51:41.869Z,99070.81
2023-03-31T19:54:10.845Z,99073.06
2023-03-31T19:56:38.074Z,99073.44
2023-03-31T19:59:07.618Z,99068.16
2023-03-31T20:01:34.192Z,99065.13
2023-03-31T20:04:00.959Z,99061.28
2023-03-31T20:06:29.857Z,99053.41
2023-03-31T20:08:59.515Z,99056.88
2023-03-31T20:11:27.810Z,99056.44
2023-03-31T20:13:57.487Z,99057.88
2023-03-31T20:16:27.370Z,99063.75
2023-03-31T20:19:04.192Z,99064.19
2023-03-31T20:21:33.253Z,99056.94
2023-03-31T20:24:02.487Z,99054.13
2023-03-31T20:26:30.719Z,99061.41
2023-03-31T20:28:58.758Z,99060.19
2023-03-31T20:31:28.038Z,99065.44
2023-03-31T20:33:55.793Z,99059.22
2023-03-31T20:36:27.264Z,99054.94
2023-03-31T20:38:54.004Z,99058.19
2023-03-31T20:41:23.841Z,99052.72
2023-03-31T20:43:50.648Z,99066.69
2023-03-31T20:46:17.663Z,99070.94
2023-03-31T20:48:47.869Z,99068.91
2023-03-31T20:51:17.638Z,99079.00
2023-03-31T20:53:46.696Z,99084.69
2023-03-31T20:56:19.769Z,99083.25
2023-03-31T20:58:47.749Z,99082.06
2023-03-31T21:01:14.932Z,99067.69
2023-03-31T21:03:42.286Z,99070.72
2023-03-31T21:06:12.099Z,99072.75
2023-03-31T21:08:40.849Z,99075.97
2023-03-31T21:11:07.799Z,99075.78
2023-03-31T21:13:34.607Z,99072.13
2023-03-31T21:16:01.548Z,99074.97
2023-03-31T21:18:33.822Z,99073.97
2023-03-31T21:21:01.685Z,99075.38
2023-03-31T21:23:29.617Z,99083.84
2023-03-31T21:26:00.219Z,99084.06
2023-03-31T21:28:29.167Z,99084.88
2023-03-31T21:31:07.126Z,99080.00
2023-03-31T21:33:35.107Z,99069.06
2023-03-31T21:36:01.706Z,99076.97
2023-03-31T21:38:28.602Z,99080.81
2023-03-31T21:40:58.007Z,99079.19
2023-03-31T21:43:25.835Z,99077.59
2023-03-31T21:45:54.572Z,99076.78
2023-03-31T21:48:25.021Z,99078.78
2023-03-31T21:50:54.487Z,99087.06
2023-03-31T21:53:22.439Z,99086.44
2023-03-31T21:55:55.134Z,99082.41
2023-03-31T21:58:22.827Z,99074.06
2023-03-31T22:00:49.400Z,99080.78
2023-03-31T22:03:26.529Z,99088.84
2023-03-31T22:05:58.763Z,99083.41
2023-03-31T22:08:27.047Z,99086.03
2023-03-31T22:10:54.568Z,99090.47
2023-03-31T22:13:24.852Z,99093.31
2023-03-31T22:15:51.981Z,99084.59
2023-03-31T22:18:19.041Z,99098.97
2023-03-31T22:20:46.620Z,99097.53
2023-03-31T22:23:13.450Z,99095.50
2023-03-31T22:25:39.823Z,99096.31
2023-03-31T22:28:07.471Z,99097.72
2023-03-31T22:30:34.264Z,99109.28
2023-03-31T22:33:01.206Z,99110.91
2023-03-31T22:35:28.324Z,99107.25
2023-03-31T22:37:54.909Z,99105.41
2023-03-31T22:40:21.577Z,99105.63
2023-03-31T22:42:48.071Z,99109.09
2023-03-31T22:45:14.615Z,99111.13
2023-03-31T22:47:42.357Z,99108.31
2023-03-31T22:50:11.079Z,99115.19
2023-03-31T22:52:42.397Z,99114.97
2023-03-31T22:55:09.130Z,99115.97
2023-03-31T22:57:35.814Z,99111.75
2023-03-31T23:00:03.455Z,99116.19
2023-03-31T23:02:29.910Z,99117.78
2023-03-31T23:04:56.376Z,99115.78
2023-03-31T23:07:25.123Z,99118.81
2023-03-31T23:09:51.495Z,99112.34
2023-03-31T23:12:17.955Z,99107.66
2023-03-31T23:14:44.421Z,99110.69
2023-03-31T23:17:11.264Z,99117.59
2023-03-31T23:19:38.790Z,99113.72
2023-03-31T23:22:09.830Z,99102.22
2023-03-31T23:24:38.763Z,99104.25
2023-03-31T23:27:05.564Z,99113.34
2023-03-31T23:29:35.391Z,99106.69
2023-03-31T23:32:02.221Z,99104.84
2023-03-31T23:34:28.746Z,99101.44
2023-03-31T23:36:55.217Z,99096.75
2023-03-31T23:39:24.264Z,99098.19
2023-03-31T23:41:51.179Z,99093.94
2023-03-31T23:44:17.850Z,99101.44
2023-03-31T23:46:44.361Z,99100.41
2023-03-31T23:49:13.424Z,99099.22
2023-03-31T23:51:39.916Z,99097.97
2023-03-31T23:54:06.570Z,99098.81
2023-03-31T23:56:40.552Z,99107.50
2023-03-31T23:59:07.007Z,99093.34
